createdAt,value
2018-12-04T00:00:34.467Z,0
2018-12-04T00:01:35.442Z,0
2018-12-04T00:02:35.858Z,0
2018-12-04T00:03:37.115Z,0
2018-12-04T00:04:37.100Z,0
2018-12-04T00:05:37.517Z,0
2018-12-04T00:06:38.214Z,0
2018-12-04T00:07:38.770Z,0
2018-12-04T00:08:39.466Z,0
2018-12-04T00:09:40.888Z,0
2018-12-04T00:10:41.861Z,0
2018-12-04T00:11:42.279Z,0
2018-12-04T00:12:42.705Z,0
2018-12-04T00:13:43.844Z,0
2018-12-04T00:14:45.549Z,0
2018-12-04T00:15:45.695Z,0
2018-12-04T00:16:47.225Z,0
2018-12-04T00:17:48.630Z,0
2018-12-04T00:18:48.050Z,0
2018-12-04T00:19:49.619Z,0
2018-12-04T00:20:50.037Z,0
2018-12-04T00:21:50.772Z,0
2018-12-04T00:22:51.190Z,0
2018-12-04T00:23:51.888Z,0
2018-12-04T00:24:52.028Z,0
2018-12-04T00:25:53.176Z,0
2018-12-04T00:26:54.874Z,0
2018-12-04T00:27:55.000Z,0
2018-12-04T00:28:56.698Z,0
2018-12-04T00:29:57.402Z,0
2018-12-04T00:30:57.814Z,0
2018-12-04T00:31:59.073Z,0
2018-12-04T00:33:00.042Z,0
2018-12-04T00:33:59.745Z,0
2018-12-04T00:35:00.158Z,0
2018-12-04T00:36:00.587Z,0
2018-12-04T00:37:01.022Z,0
2018-12-04T00:38:02.156Z,0
2018-12-04T00:39:03.809Z,0
2018-12-04T00:40:04.785Z,0
2018-12-04T00:41:05.211Z,0
2018-12-04T00:42:05.916Z,0
2018-12-04T00:43:06.337Z,0
2018-12-04T00:44:07.758Z,0
2018-12-04T00:45:08.178Z,0
2018-12-04T00:46:08.875Z,0
2018-12-04T00:47:09.012Z,0
2018-12-04T00:48:09.605Z,0
2018-12-04T00:49:10.861Z,0
2018-12-04T00:50:11.837Z,0
2018-12-04T00:51:12.253Z,0
2018-12-04T00:52:13.513Z,0
2018-12-04T00:53:13.929Z,0
2018-12-04T00:54:15.348Z,0
2018-12-04T00:55:16.600Z,0
2018-12-04T00:56:16.751Z,0
2018-12-04T00:57:18.450Z,0
2018-12-04T00:58:19.042Z,0
2018-12-04T00:59:20.744Z,0
2018-12-04T01:00:21.714Z,0
2018-12-04T01:01:22.416Z,0
2018-12-04T01:02:22.837Z,0
2018-12-04T01:03:23.817Z,0
2018-12-04T01:04:23.958Z,0
2018-12-04T01:05:25.378Z,0
2018-12-04T01:06:25.519Z,0
2018-12-04T01:07:26.218Z,0
2018-12-04T01:08:26.766Z,0
2018-12-04T01:09:27.184Z,0
2018-12-04T01:10:28.325Z,0
2018-12-04T01:11:30.021Z,0
2018-12-04T01:12:30.439Z,0
2018-12-04T01:13:31.141Z,0
2018-12-04T01:14:31.559Z,0
2018-12-04T01:15:32.254Z,0
2018-12-04T01:16:33.387Z,0
2018-12-04T01:17:34.522Z,0
2018-12-04T01:18:35.909Z,0
2018-12-04T01:19:36.594Z,0
2018-12-04T01:20:37.283Z,0
2018-12-04T01:21:39.083Z,0
2018-12-04T01:22:38.775Z,0
2018-12-04T01:23:39.464Z,0
2018-12-04T01:24:39.874Z,0
2018-12-04T01:25:40.837Z,0
2018-12-04T01:26:41.241Z,0
2018-12-04T01:27:41.372Z,0
2018-12-04T01:28:42.503Z,0
2018-12-04T01:29:42.921Z,0
2018-12-04T01:30:44.607Z,0
2018-12-04T01:31:45.294Z,0
2018-12-04T01:32:46.256Z,0
2018-12-04T01:33:46.665Z,0
2018-12-04T01:34:48.351Z,0
2018-12-04T01:35:49.039Z,0
2018-12-04T01:36:51.046Z,0
2018-12-04T01:37:50.453Z,0
2018-12-04T01:38:51.547Z,0
2018-12-04T01:39:53.510Z,0
2018-12-04T01:40:53.197Z,0
2018-12-04T01:41:53.328Z,0
2018-12-04T01:42:54.457Z,0
2018-12-04T01:43:55.141Z,0
2018-12-04T01:44:55.551Z,0
2018-12-04T01:45:55.964Z,0
2018-12-04T01:46:57.651Z,0
2018-12-04T01:47:58.333Z,0
2018-12-04T01:48:58.898Z,0
2018-12-04T01:50:00.148Z,0
2018-12-04T01:51:00.317Z,0
2018-12-04T01:52:00.724Z,0
2018-12-04T01:53:02.137Z,0
2018-12-04T01:54:02.821Z,0
2018-12-04T01:55:03.226Z,0
2018-12-04T01:56:03.915Z,0
2018-12-04T01:57:05.330Z,0
2018-12-04T01:58:06.571Z,0
2018-12-04T01:59:06.378Z,0
2018-12-04T02:00:08.065Z,0
2018-12-04T02:01:08.203Z,0
2018-12-04T02:02:08.893Z,0
2018-12-04T02:03:09.302Z,0
2018-12-04T02:04:10.548Z,0
2018-12-04T02:05:10.956Z,0
2018-12-04T02:06:11.644Z,0
2018-12-04T02:07:11.776Z,0
2018-12-04T02:08:12.183Z,0
2018-12-04T02:09:13.580Z,0
2018-12-04T02:10:14.852Z,0
2018-12-04T02:11:15.312Z,0
2018-12-04T02:12:16.559Z,0
2018-12-04T02:13:16.244Z,0
2018-12-04T02:14:16.931Z,0
2018-12-04T02:15:17.617Z,0
2018-12-04T02:16:18.027Z,0
2018-12-04T02:17:19.991Z,0
2018-12-04T02:18:20.399Z,0
2018-12-04T02:19:21.497Z,0
2018-12-04T02:20:21.906Z,0
2018-12-04T02:21:22.069Z,0
2018-12-04T02:22:23.033Z,0
2018-12-04T02:23:23.995Z,0
2018-12-04T02:24:24.681Z,0
2018-12-04T02:25:25.092Z,0
2018-12-04T02:26:25.779Z,0
2018-12-04T02:27:26.741Z,0
2018-12-04T02:28:27.428Z,0
2018-12-04T02:29:28.524Z,0
2018-12-04T02:30:29.045Z,0
2018-12-04T02:31:29.566Z,0
2018-12-04T02:32:29.257Z,0
2018-12-04T02:33:30.502Z,0
2018-12-04T02:34:30.915Z,0
2018-12-04T02:35:31.602Z,0
2018-12-04T02:36:32.291Z,0
2018-12-04T02:37:33.983Z,0
2018-12-04T02:38:34.781Z,0
2018-12-04T02:39:34.507Z,0
2018-12-04T02:40:35.197Z,0
2018-12-04T02:41:36.715Z,0
2018-12-04T02:42:37.688Z,0
2018-12-04T02:43:38.374Z,0
2018-12-04T02:44:39.061Z,0
2018-12-04T02:45:39.471Z,0
2018-12-04T02:46:40.709Z,0
2018-12-04T02:47:41.119Z,0
2018-12-04T02:48:41.826Z,0
2018-12-04T02:49:42.224Z,0
2018-12-04T02:50:43.189Z,0
2018-12-04T02:51:43.594Z,0
2018-12-04T02:52:44.560Z,0
2018-12-04T02:53:45.812Z,0
2018-12-04T02:54:45.496Z,0
2018-12-04T02:55:47.750Z,0
2018-12-04T02:56:47.155Z,0
2018-12-04T02:57:48.574Z,0
2018-12-04T02:58:49.542Z,0
2018-12-04T02:59:49.675Z,0
2018-12-04T03:00:50.081Z,0
2018-12-04T03:01:51.607Z,0
2018-12-04T03:02:52.016Z,0
2018-12-04T03:03:53.262Z,0
2018-12-04T03:04:52.994Z,0
2018-12-04T03:05:53.679Z,0
2018-12-04T03:06:55.115Z,0
2018-12-04T03:07:55.803Z,0
2018-12-04T03:08:56.780Z,0
2018-12-04T03:09:58.209Z,0
2018-12-04T03:10:58.900Z,0
2018-12-04T03:12:00.715Z,0
2018-12-04T03:13:01.404Z,0
2018-12-04T03:14:02.419Z,0
2018-12-04T03:15:02.379Z,0
2018-12-04T03:16:03.339Z,0
2018-12-04T03:17:03.585Z,0
2018-12-04T03:18:04.275Z,0
2018-12-04T03:19:05.522Z,0
2018-12-04T03:20:05.471Z,0
2018-12-04T03:21:05.604Z,0
2018-12-04T03:22:06.570Z,0
2018-12-04T03:23:07.544Z,0
2018-12-04T03:24:08.785Z,0
2018-12-04T03:25:10.303Z,0
2018-12-04T03:26:10.268Z,0
2018-12-04T03:27:11.230Z,0
2018-12-04T03:28:12.755Z,0
2018-12-04T03:29:12.724Z,0
2018-12-04T03:30:13.877Z,0
2018-12-04T03:31:15.764Z,0
2018-12-04T03:32:16.302Z,0
2018-12-04T03:33:16.842Z,0
2018-12-04T03:34:16.555Z,0
2018-12-04T03:35:18.241Z,0
2018-12-04T03:36:18.483Z,0
2018-12-04T03:37:18.948Z,0
2018-12-04T03:38:20.466Z,0
2018-12-04T03:39:20.436Z,0
2018-12-04T03:40:21.545Z,0
2018-12-04T03:41:22.241Z,0
2018-12-04T03:42:22.658Z,0
2018-12-04T03:43:23.899Z,0
2018-12-04T03:44:24.901Z,0
2018-12-04T03:45:24.590Z,0
2018-12-04T03:46:25.290Z,0
2018-12-04T03:47:26.703Z,0
2018-12-04T03:48:27.390Z,0
2018-12-04T03:49:28.402Z,0
2018-12-04T03:50:29.513Z,0
2018-12-04T03:51:30.575Z,0
2018-12-04T03:52:32.098Z,0
2018-12-04T03:53:33.059Z,0
2018-12-04T03:54:34.029Z,0
2018-12-04T03:55:35.773Z,0
2018-12-04T03:56:36.477Z,0
2018-12-04T03:57:37.441Z,0
2018-12-04T03:58:38.685Z,0
2018-12-04T03:59:39.201Z,0
2018-12-04T04:00:39.593Z,0
2018-12-04T04:01:39.773Z,0
2018-12-04T04:02:40.456Z,0
2018-12-04T04:03:40.702Z,0
2018-12-04T04:04:42.286Z,0
2018-12-04T04:05:42.416Z,0
2018-12-04T04:06:43.842Z,0
2018-12-04T04:07:44.811Z,0
2018-12-04T04:08:45.789Z,0
2018-12-04T04:09:47.036Z,0
2018-12-04T04:10:47.369Z,0
2018-12-04T04:11:47.508Z,0
2018-12-04T04:12:48.509Z,0
2018-12-04T04:13:48.913Z,0
2018-12-04T04:14:50.323Z,0
2018-12-04T04:15:50.731Z,0
2018-12-04T04:16:52.025Z,0
2018-12-04T04:17:52.714Z,0
2018-12-04T04:18:53.120Z,0
2018-12-04T04:19:54.256Z,0
2018-12-04T04:20:55.664Z,0
2018-12-04T04:21:56.071Z,0
2018-12-04T04:22:57.878Z,0
2018-12-04T04:23:57.293Z,0
2018-12-04T04:24:58.816Z,0
2018-12-04T04:25:59.506Z,0
2018-12-04T04:27:01.025Z,0
2018-12-04T04:28:00.437Z,0
2018-12-04T04:29:01.403Z,0
2018-12-04T04:30:02.738Z,0
2018-12-04T04:31:02.855Z,0
2018-12-04T04:32:03.276Z,0
2018-12-04T04:33:03.961Z,0
2018-12-04T04:34:05.762Z,0
2018-12-04T04:35:06.722Z,0
2018-12-04T04:36:07.412Z,0
2018-12-04T04:37:08.663Z,0
2018-12-04T04:38:08.623Z,0
2018-12-04T04:39:09.314Z,0
2018-12-04T04:40:10.580Z,0
2018-12-04T04:41:10.967Z,0
2018-12-04T04:42:12.206Z,0
2018-12-04T04:43:13.301Z,0
2018-12-04T04:44:12.708Z,0
2018-12-04T04:45:13.665Z,0
2018-12-04T04:46:15.501Z,0
2018-12-04T04:47:15.187Z,0
2018-12-04T04:48:15.361Z,0
2018-12-04T04:49:16.323Z,0
2018-12-04T04:50:17.305Z,0
2018-12-04T04:51:17.705Z,0
2018-12-04T04:52:18.123Z,0
2018-12-04T04:53:19.642Z,0
2018-12-04T04:54:19.624Z,0
2018-12-04T04:55:20.424Z,0
2018-12-04T04:56:20.686Z,0
2018-12-04T04:57:21.760Z,0
2018-12-04T04:58:21.998Z,0
2018-12-04T04:59:23.005Z,0
2018-12-04T05:00:23.974Z,0
2018-12-04T05:01:25.088Z,0
2018-12-04T05:02:24.788Z,0
2018-12-04T05:03:26.199Z,0
2018-12-04T05:04:27.164Z,0
2018-12-04T05:05:27.583Z,0
2018-12-04T05:06:28.556Z,0
2018-12-04T05:07:29.011Z,0
2018-12-04T05:08:30.823Z,0
2018-12-04T05:09:30.232Z,0
2018-12-04T05:10:30.922Z,0
2018-12-04T05:11:31.308Z,0
2018-12-04T05:12:32.274Z,0
2018-12-04T05:13:32.787Z,0
2018-12-04T05:14:32.197Z,0
2018-12-04T05:15:33.711Z,0
2018-12-04T05:16:34.227Z,0
2018-12-04T05:17:34.201Z,0
2018-12-04T05:18:35.476Z,0
2018-12-04T05:19:35.187Z,0
2018-12-04T05:20:35.591Z,0
2018-12-04T05:21:36.821Z,0
2018-12-04T05:22:37.233Z,0
2018-12-04T05:23:37.919Z,0
2018-12-04T05:24:39.330Z,0
2018-12-04T05:25:39.455Z,0
2018-12-04T05:26:40.692Z,0
2018-12-04T05:27:41.654Z,0
2018-12-04T05:28:42.624Z,0
2018-12-04T05:29:43.618Z,0
2018-12-04T05:30:44.032Z,0
2018-12-04T05:31:44.507Z,0
2018-12-04T05:32:45.957Z,0
2018-12-04T05:33:47.089Z,0
2018-12-04T05:34:48.215Z,0
2018-12-04T05:35:49.618Z,0
2018-12-04T05:36:50.579Z,0
2018-12-04T05:37:50.539Z,0
2018-12-04T05:38:50.948Z,0
2018-12-04T05:39:52.186Z,0
2018-12-04T05:40:52.873Z,0
2018-12-04T05:41:52.987Z,0
2018-12-04T05:42:53.391Z,0
2018-12-04T05:43:54.353Z,0
2018-12-04T05:44:54.764Z,0
2018-12-04T05:45:55.891Z,0
2018-12-04T05:46:56.852Z,0
2018-12-04T05:47:57.814Z,0
2018-12-04T05:48:58.223Z,0
2018-12-04T05:50:01.226Z,0
2018-12-04T05:51:00.246Z,0
2018-12-04T05:52:00.789Z,0
2018-12-04T05:53:01.467Z,0
2018-12-04T05:54:02.712Z,0
2018-12-04T05:55:03.678Z,0
2018-12-04T05:56:04.082Z,0
2018-12-04T05:57:05.599Z,0
2018-12-04T05:58:05.282Z,0
2018-12-04T05:59:05.519Z,0
2018-12-04T06:00:05.926Z,0
2018-12-04T06:01:06.331Z,0
2018-12-04T06:02:06.880Z,0
2018-12-04T06:03:08.286Z,0
2018-12-04T06:04:08.740Z,0
2018-12-04T06:05:09.424Z,0
2018-12-04T06:06:09.829Z,0
2018-12-04T06:07:10.512Z,0
2018-12-04T06:08:11.192Z,0
2018-12-04T06:09:11.874Z,0
2018-12-04T06:10:12.280Z,0
2018-12-04T06:11:12.691Z,0
2018-12-04T06:12:14.332Z,0
2018-12-04T06:13:14.296Z,0
2018-12-04T06:14:13.983Z,0
2018-12-04T06:15:16.233Z,0
2018-12-04T06:16:16.678Z,0
2018-12-04T06:17:17.083Z,0
2018-12-04T06:18:17.217Z,0
2018-12-04T06:19:17.902Z,0
2018-12-04T06:20:19.309Z,4
2018-12-04T06:21:20.272Z,4
2018-12-04T06:22:21.365Z,0
2018-12-04T06:23:22.322Z,8
2018-12-04T06:24:22.857Z,8
2018-12-04T06:25:23.821Z,12
2018-12-04T06:26:23.781Z,12
2018-12-04T06:27:25.186Z,12
2018-12-04T06:28:26.149Z,12
2018-12-04T06:29:26.835Z,12
2018-12-04T06:30:27.800Z,16
2018-12-04T06:31:28.484Z,16
2018-12-04T06:32:29.028Z,20
2018-12-04T06:33:29.712Z,20
2018-12-04T06:34:30.722Z,24
2018-12-04T06:35:31.127Z,20
2018-12-04T06:36:31.259Z,24
2018-12-04T06:37:31.662Z,20
2018-12-04T06:38:32.624Z,24
2018-12-04T06:39:32.789Z,28
2018-12-04T06:40:34.475Z,32
2018-12-04T06:41:34.598Z,36
2018-12-04T06:42:35.132Z,36
2018-12-04T06:43:35.822Z,36
2018-12-04T06:44:37.248Z,32
2018-12-04T06:45:38.212Z,36
2018-12-04T06:46:38.618Z,36
2018-12-04T06:47:39.319Z,36
2018-12-04T06:48:40.009Z,32
2018-12-04T06:49:40.138Z,32
2018-12-04T06:50:41.657Z,36
2018-12-04T06:51:41.788Z,44
2018-12-04T06:52:42.596Z,52
2018-12-04T06:53:44.283Z,52
2018-12-04T06:54:44.410Z,52
2018-12-04T06:55:45.371Z,56
2018-12-04T06:56:45.498Z,56
2018-12-04T06:57:46.939Z,56
2018-12-04T06:58:47.626Z,64
2018-12-04T06:59:49.314Z,64
2018-12-04T07:00:49.722Z,68
2018-12-04T07:01:50.687Z,72
2018-12-04T07:02:51.245Z,80
2018-12-04T07:03:52.894Z,80
2018-12-04T07:04:53.416Z,80
2018-12-04T07:05:55.585Z,72
2018-12-04T07:06:56.148Z,68
2018-12-04T07:07:59.601Z,64
2018-12-04T07:08:57.295Z,56
2018-12-04T07:09:58.263Z,44
2018-12-04T07:10:58.942Z,40
2018-12-04T07:12:04.519Z,32
2018-12-04T07:13:05.917Z,28
2018-12-04T07:14:06.334Z,28
2018-12-04T07:15:08.066Z,24
2018-12-04T07:16:08.755Z,24
2018-12-04T07:17:11.668Z,24
2018-12-04T07:18:09.702Z,20
2018-12-04T07:19:09.672Z,20
2018-12-04T07:20:10.348Z,20
2018-12-04T07:21:17.071Z,24
2018-12-04T07:21:24.678Z,24
2018-12-04T07:22:28.978Z,32
2018-12-04T07:23:27.297Z,32
2018-12-04T07:24:25.983Z,40
2018-12-04T07:25:26.109Z,48
2018-12-04T07:26:27.238Z,56
2018-12-04T07:27:28.204Z,64
2018-12-04T07:28:28.910Z,60
2018-12-04T07:29:30.146Z,60
2018-12-04T07:30:29.556Z,60
2018-12-04T07:31:30.963Z,60
2018-12-04T07:32:43.832Z,52
2018-12-04T07:33:44.388Z,44
2018-12-04T07:34:49.097Z,44
2018-12-04T07:35:48.114Z,48
2018-12-04T07:36:52.621Z,44
2018-12-04T07:37:51.153Z,44
2018-12-04T07:38:51.084Z,48
2018-12-04T07:39:51.492Z,48
2018-12-04T07:40:51.938Z,60
2018-12-04T07:41:54.700Z,64
2018-12-04T07:43:00.390Z,72
2018-12-04T07:43:12.936Z,76
2018-12-04T07:43:26.225Z,76
2018-12-04T07:43:33.967Z,72
2018-12-04T07:44:33.506Z,80
2018-12-04T07:45:34.467Z,84
2018-12-04T07:46:34.638Z,96
2018-12-04T07:47:36.042Z,104
2018-12-04T07:48:37.592Z,120
2018-12-04T07:49:42.928Z,148
2018-12-04T07:49:51.206Z,148
2018-12-04T07:50:56.080Z,180
2018-12-04T07:51:03.476Z,184
2018-12-04T07:52:08.735Z,216
2018-12-04T07:53:06.977Z,256
2018-12-04T07:54:06.671Z,292
2018-12-04T07:55:07.350Z,324
2018-12-04T07:56:08.487Z,340
2018-12-04T07:57:15.386Z,356
2018-12-04T07:57:27.195Z,356
2018-12-04T07:57:34.504Z,360
2018-12-04T07:58:34.477Z,384
2018-12-04T07:59:35.183Z,424
2018-12-04T08:00:42.229Z,448
2018-12-04T08:00:52.526Z,448
2018-12-04T08:01:54.182Z,444
2018-12-04T08:02:02.816Z,444
2018-12-04T08:03:01.544Z,464
2018-12-04T08:04:07.461Z,508
2018-12-04T08:04:15.278Z,520
2018-12-04T08:05:21.529Z,588
2018-12-04T08:05:28.312Z,592
2018-12-04T08:06:29.170Z,648
2018-12-04T08:07:29.582Z,676
2018-12-04T08:08:33.173Z,684
2018-12-04T08:09:37.769Z,672
2018-12-04T08:09:44.239Z,668
2018-12-04T08:10:49.665Z,616
2018-12-04T08:10:56.702Z,608
2018-12-04T08:11:56.806Z,596
2018-12-04T08:12:57.491Z,588
2018-12-04T08:13:58.179Z,588
2018-12-04T08:14:58.585Z,628
2018-12-04T08:15:58.993Z,696
2018-12-04T08:16:59.167Z,780
2018-12-04T08:18:00.132Z,828
2018-12-04T08:19:00.814Z,864
2018-12-04T08:20:01.503Z,896
2018-12-04T08:21:02.542Z,888
2018-12-04T08:22:03.224Z,816
2018-12-04T08:23:03.876Z,728
2018-12-04T08:24:04.721Z,700
2018-12-04T08:25:05.282Z,716
2018-12-04T08:26:04.695Z,748
2018-12-04T08:27:06.656Z,704
2018-12-04T08:28:06.068Z,636
2018-12-04T08:29:06.493Z,560
2018-12-04T08:30:07.187Z,508
2018-12-04T08:31:09.202Z,476
2018-12-04T08:32:10.686Z,448
2018-12-04T08:33:10.923Z,452
2018-12-04T08:34:10.888Z,472
2018-12-04T08:35:13.692Z,500
2018-12-04T08:36:13.023Z,532
2018-12-04T08:37:15.994Z,572
2018-12-04T08:38:14.687Z,620
2018-12-04T08:39:15.374Z,660
2018-12-04T08:40:16.789Z,632
2018-12-04T08:41:17.238Z,592
2018-12-04T08:42:18.616Z,624
2018-12-04T08:43:18.753Z,644
2018-12-04T08:44:19.884Z,724
2018-12-04T08:45:21.013Z,696
2018-12-04T08:46:21.981Z,676
2018-12-04T08:47:22.391Z,616
2018-12-04T08:48:23.356Z,516
2018-12-04T08:49:23.046Z,480
2018-12-04T08:50:24.009Z,480
2018-12-04T08:51:25.249Z,480
2018-12-04T08:52:26.180Z,504
2018-12-04T08:53:27.420Z,508
2018-12-04T08:54:27.551Z,536
2018-12-04T08:55:29.518Z,572
2018-12-04T08:56:31.553Z,524
2018-12-04T08:57:31.965Z,540
2018-12-04T08:58:32.930Z,604
2018-12-04T08:59:33.618Z,636
2018-12-04T09:00:34.024Z,728
2018-12-04T09:01:35.275Z,1012
2018-12-04T09:02:35.365Z,1272
2018-12-04T09:03:36.331Z,992
2018-12-04T09:04:36.463Z,796
2018-12-04T09:05:42.780Z,752
2018-12-04T09:05:51.338Z,744
2018-12-04T09:06:52.732Z,764
2018-12-04T09:07:52.995Z,896
2018-12-04T09:08:55.147Z,940
2018-12-04T09:09:54.399Z,912
2018-12-04T09:10:55.085Z,840
2018-12-04T09:11:56.779Z,708
2018-12-04T09:12:56.954Z,620
2018-12-04T09:13:58.647Z,564
2018-12-04T09:14:59.113Z,556
2018-12-04T09:16:00.081Z,588
2018-12-04T09:17:01.182Z,720
2018-12-04T09:18:01.593Z,1068
2018-12-04T09:19:03.662Z,1320
2018-12-04T09:20:04.484Z,1172
2018-12-04T09:21:04.507Z,1120
2018-12-04T09:22:05.422Z,1100
2018-12-04T09:23:06.048Z,1176
2018-12-04T09:24:06.778Z,1408
2018-12-04T09:25:07.515Z,1700
2018-12-04T09:26:08.537Z,1848
2018-12-04T09:27:10.261Z,1516
2018-12-04T09:28:11.877Z,1248
2018-12-04T09:29:11.329Z,1140
2018-12-04T09:30:12.405Z,1260
2018-12-04T09:31:12.660Z,1404
2018-12-04T09:32:13.628Z,1992
2018-12-04T09:33:13.762Z,2888
2018-12-04T09:34:15.005Z,3100
2018-12-04T09:35:15.715Z,3580
2018-12-04T09:36:16.124Z,3908
2018-12-04T09:37:17.526Z,4104
2018-12-04T09:38:17.217Z,4076
2018-12-04T09:39:23.751Z,3412
2018-12-04T09:39:34.641Z,3324
2018-12-04T09:39:47.375Z,3204
2018-12-04T09:39:56.156Z,3132
2018-12-04T09:40:55.579Z,2876
2018-12-04T09:41:57.005Z,3392
2018-12-04T09:42:57.738Z,5060
2018-12-04T09:43:09.749Z,6924
2018-12-04T09:44:11.143Z,5428
2018-12-04T09:45:11.565Z,6104
2018-12-04T09:46:11.981Z,8172
2018-12-04T09:47:12.958Z,6572
2018-12-04T09:48:13.091Z,5572
2018-12-04T09:49:15.186Z,4356
2018-12-04T09:50:15.002Z,3220
2018-12-04T09:51:15.417Z,2448
2018-12-04T09:52:15.848Z,1816
2018-12-04T09:53:16.989Z,1248
2018-12-04T09:54:17.438Z,800
2018-12-04T09:55:17.894Z,564
2018-12-04T09:56:18.305Z,508
2018-12-04T09:57:20.111Z,604
2018-12-04T09:58:20.335Z,828
2018-12-04T09:59:20.796Z,1216
2018-12-04T10:00:21.932Z,1644
2018-12-04T10:01:23.344Z,1764
2018-12-04T10:02:24.461Z,1484
2018-12-04T10:03:26.998Z,1220
2018-12-04T10:04:27.094Z,1132
2018-12-04T10:05:28.889Z,944
2018-12-04T10:06:33.778Z,744
2018-12-04T10:06:41.913Z,720
2018-12-04T10:07:42.757Z,604
2018-12-04T10:08:43.209Z,616
2018-12-04T10:09:44.220Z,624
2018-12-04T10:10:44.352Z,596
2018-12-04T10:11:44.762Z,588
2018-12-04T10:12:46.727Z,636
2018-12-04T10:13:46.355Z,600
2018-12-04T10:14:47.320Z,532
2018-12-04T10:15:47.741Z,504
2018-12-04T10:16:49.166Z,464
2018-12-04T10:17:49.986Z,552
2018-12-04T10:18:50.949Z,708
2018-12-04T10:19:51.921Z,960
2018-12-04T10:20:52.051Z,1124
2018-12-04T10:21:53.181Z,1176
2018-12-04T10:22:54.593Z,1196
2018-12-04T10:23:55.838Z,1496
2018-12-04T10:24:55.978Z,2256
2018-12-04T10:25:56.953Z,2868
2018-12-04T10:26:57.367Z,3356
2018-12-04T10:27:58.769Z,3992
2018-12-04T10:28:59.738Z,4052
2018-12-04T10:30:02.294Z,3824
2018-12-04T10:31:00.983Z,3968
2018-12-04T10:32:01.950Z,3884
2018-12-04T10:33:02.371Z,3360
2018-12-04T10:34:08.745Z,2720
2018-12-04T10:34:20.091Z,2656
2018-12-04T10:34:32.396Z,2608
2018-12-04T10:34:44.712Z,2608
2018-12-04T10:34:56.436Z,2616
2018-12-04T10:35:04.492Z,2620
2018-12-04T10:36:10.249Z,2756
2018-12-04T10:36:20.682Z,2776
2018-12-04T10:36:30.555Z,2784
2018-12-04T10:37:27.237Z,2968
2018-12-04T10:38:28.552Z,3000
2018-12-04T10:39:29.243Z,2672
2018-12-04T10:40:30.377Z,3116
2018-12-04T10:41:30.793Z,3072
2018-12-04T10:42:32.039Z,2928
2018-12-04T10:43:31.783Z,2960
2018-12-04T10:44:33.290Z,3088
2018-12-04T10:45:35.877Z,3204
2018-12-04T10:46:34.827Z,3096
2018-12-04T10:47:35.419Z,2740
2018-12-04T10:48:36.104Z,2488
2018-12-04T10:49:36.237Z,2368
2018-12-04T10:50:37.673Z,2348
2018-12-04T10:51:51.022Z,2020
2018-12-04T10:52:50.862Z,1644
2018-12-04T10:53:52.550Z,1316
2018-12-04T10:54:53.675Z,1004
2018-12-04T10:55:53.706Z,712
2018-12-04T10:56:54.117Z,456
2018-12-04T10:57:55.526Z,324
2018-12-04T10:58:56.216Z,256
2018-12-04T10:59:56.626Z,260
2018-12-04T11:00:57.360Z,312
2018-12-04T11:01:59.713Z,396
2018-12-04T11:02:59.866Z,496
2018-12-04T11:04:00.827Z,552
2018-12-04T11:05:00.518Z,568
2018-12-04T11:06:06.906Z,616
2018-12-04T11:06:13.719Z,620
2018-12-04T11:07:14.274Z,620
2018-12-04T11:08:15.000Z,604
2018-12-04T11:09:15.134Z,588
2018-12-04T11:10:15.819Z,592
2018-12-04T11:11:16.229Z,604
2018-12-04T11:12:16.606Z,652
2018-12-04T11:13:17.304Z,728
2018-12-04T11:14:17.769Z,888
2018-12-04T11:15:18.473Z,1112
2018-12-04T11:16:18.525Z,1216
2018-12-04T11:17:20.365Z,1244
2018-12-04T11:18:21.075Z,1260
2018-12-04T11:19:22.335Z,1148
2018-12-04T11:20:24.569Z,908
2018-12-04T11:21:24.811Z,752
2018-12-04T11:22:25.025Z,756
2018-12-04T11:23:25.358Z,904
2018-12-04T11:24:27.537Z,1108
2018-12-04T11:25:26.337Z,1244
2018-12-04T11:26:27.161Z,1244
2018-12-04T11:27:27.745Z,1100
2018-12-04T11:28:35.150Z,924
2018-12-04T11:28:43.623Z,900
2018-12-04T11:29:40.926Z,776
2018-12-04T11:30:41.329Z,688
2018-12-04T11:31:42.014Z,612
2018-12-04T11:32:42.979Z,540
2018-12-04T11:33:43.398Z,452
2018-12-04T11:34:44.531Z,384
2018-12-04T11:35:48.998Z,328
2018-12-04T11:36:53.979Z,288
2018-12-04T11:37:04.227Z,288
2018-12-04T11:38:00.979Z,272
2018-12-04T11:39:05.136Z,268
2018-12-04T11:40:03.192Z,264
2018-12-04T11:41:03.713Z,272
2018-12-04T11:42:10.176Z,276
2018-12-04T11:42:20.101Z,280
2018-12-04T11:43:22.920Z,296
2018-12-04T11:43:35.001Z,296
2018-12-04T11:43:46.626Z,300
2018-12-04T11:43:55.448Z,300
2018-12-04T11:45:00.882Z,292
2018-12-04T11:45:08.459Z,288
2018-12-04T11:46:08.751Z,268
2018-12-04T11:47:12.164Z,264
2018-12-04T11:48:11.311Z,260
2018-12-04T11:49:12.866Z,236
2018-12-04T11:50:13.552Z,224
2018-12-04T11:51:13.967Z,212
2018-12-04T11:52:15.386Z,212
2018-12-04T11:53:16.072Z,216
2018-12-04T11:54:20.545Z,232
2018-12-04T11:54:32.509Z,236
2018-12-04T11:54:43.830Z,240
2018-12-04T11:55:43.140Z,268
2018-12-04T11:56:45.875Z,320
2018-12-04T11:57:45.282Z,400
2018-12-04T11:58:45.971Z,488
2018-12-04T11:59:46.657Z,552
2018-12-04T12:00:47.621Z,560
2018-12-04T12:01:48.921Z,588
2018-12-04T12:02:48.747Z,588
2018-12-04T12:03:49.155Z,556
2018-12-04T12:04:49.845Z,496
2018-12-04T12:05:55.127Z,420
2018-12-04T12:06:06.227Z,408
2018-12-04T12:07:03.515Z,356
2018-12-04T12:08:03.924Z,312
2018-12-04T12:09:04.618Z,288
2018-12-04T12:10:05.580Z,268
2018-12-04T12:11:05.997Z,260
2018-12-04T12:12:06.679Z,264
2018-12-04T12:13:07.090Z,268
2018-12-04T12:14:08.216Z,284
2018-12-04T12:15:08.681Z,300
2018-12-04T12:16:09.374Z,296
2018-12-04T12:17:10.485Z,276
2018-12-04T12:18:16.884Z,256
2018-12-04T12:18:25.628Z,256
2018-12-04T12:19:24.127Z,236
2018-12-04T12:20:24.301Z,212
2018-12-04T12:21:26.277Z,200
2018-12-04T12:22:26.705Z,204
2018-12-04T12:23:27.151Z,196
2018-12-04T12:24:28.841Z,180
2018-12-04T12:25:29.810Z,176
2018-12-04T12:26:30.216Z,188
2018-12-04T12:27:31.369Z,192
2018-12-04T12:28:32.050Z,192
2018-12-04T12:29:32.433Z,196
2018-12-04T12:30:33.123Z,216
2018-12-04T12:31:34.085Z,240
2018-12-04T12:32:35.531Z,256
2018-12-04T12:33:36.656Z,248
2018-12-04T12:34:38.065Z,268
2018-12-04T12:35:38.804Z,304
2018-12-04T12:36:39.771Z,372
2018-12-04T12:37:40.471Z,468
2018-12-04T12:38:40.878Z,544
2018-12-04T12:39:42.299Z,532
2018-12-04T12:40:43.267Z,488
2018-12-04T12:41:43.684Z,428
2018-12-04T12:42:50.595Z,352
2018-12-04T12:43:01.528Z,340
2018-12-04T12:43:12.837Z,332
2018-12-04T12:44:09.775Z,276
2018-12-04T12:45:10.465Z,244
2018-12-04T12:46:10.877Z,240
2018-12-04T12:47:17.107Z,240
2018-12-04T12:47:28.479Z,244
2018-12-04T12:47:40.409Z,248
2018-12-04T12:47:51.810Z,244
2018-12-04T12:48:54.452Z,240
2018-12-04T12:49:02.981Z,240
2018-12-04T12:50:01.284Z,252
2018-12-04T12:51:04.464Z,288
2018-12-04T12:52:03.801Z,320
2018-12-04T12:53:04.486Z,352
2018-12-04T12:54:04.902Z,368
2018-12-04T12:55:05.561Z,388
2018-12-04T12:56:06.244Z,420
2018-12-04T12:57:06.378Z,460
2018-12-04T12:58:08.105Z,496
2018-12-04T12:59:09.074Z,524
2018-12-04T13:00:09.611Z,528
2018-12-04T13:01:10.311Z,524
2018-12-04T13:02:12.126Z,508
2018-12-04T13:03:12.826Z,492
2018-12-04T13:04:13.790Z,464
2018-12-04T13:05:14.203Z,416
2018-12-04T13:06:21.005Z,376
2018-12-04T13:06:32.232Z,372
2018-12-04T13:06:42.943Z,368
2018-12-04T13:07:41.041Z,348
2018-12-04T13:08:42.181Z,332
2018-12-04T13:09:43.869Z,324
2018-12-04T13:10:43.566Z,316
2018-12-04T13:11:44.531Z,332
2018-12-04T13:12:45.227Z,348
2018-12-04T13:13:45.653Z,360
2018-12-04T13:14:46.374Z,364
2018-12-04T13:15:46.921Z,372
2018-12-04T13:16:47.343Z,376
2018-12-04T13:17:49.037Z,392
2018-12-04T13:18:49.739Z,364
2018-12-04T13:19:55.989Z,340
2018-12-04T13:20:05.784Z,340
2018-12-04T13:20:16.990Z,336
2018-12-04T13:21:15.140Z,324
2018-12-04T13:22:16.145Z,304
2018-12-04T13:23:18.469Z,276
2018-12-04T13:24:18.467Z,248
2018-12-04T13:25:18.731Z,236
2018-12-04T13:26:20.912Z,216
2018-12-04T13:27:21.915Z,216
2018-12-04T13:28:26.613Z,208
2018-12-04T13:28:39.050Z,212
2018-12-04T13:29:36.830Z,232
2018-12-04T13:30:41.685Z,260
2018-12-04T13:31:39.220Z,280
2018-12-04T13:32:43.913Z,316
2018-12-04T13:32:56.163Z,332
2018-12-04T13:33:05.082Z,336
2018-12-04T13:34:04.942Z,424
2018-12-04T13:35:06.495Z,520
2018-12-04T13:36:07.201Z,592
2018-12-04T13:37:13.400Z,640
2018-12-04T13:37:24.917Z,648
2018-12-04T13:37:35.174Z,656
2018-12-04T13:38:34.865Z,696
2018-12-04T13:39:34.855Z,728